sensor_id;sensor_type;location;lat;lon;timestamp;P1;durP1;ratioP1;P2;durP2;ratioP2
36303;SDS011;22335;49.800;8.596;2023-04-25T00:00:35;8.75;;;8.15;;
36303;SDS011;22335;49.800;8.596;2023-04-25T00:07:18;9.32;;;8.73;;
36303;SDS011;22335;49.800;8.596;2023-04-25T00:14:02;9.02;;;8.43;;
36303;SDS011;22335;49.800;8.596;2023-04-25T00:20:47;9.70;;;9.00;;
36303;SDS011;22335;49.800;8.596;2023-04-25T00:27:31;10.45;;;9.55;;
36303;SDS011;22335;49.800;8.596;2023-04-25T00:34:15;11.60;;;10.50;;
36303;SDS011;22335;49.800;8.596;2023-04-25T00:41:00;10.57;;;9.73;;
36303;SDS011;22335;49.800;8.596;2023-04-25T00:47:43;10.85;;;10.05;;
36303;SDS011;22335;49.800;8.596;2023-04-25T00:54:29;10.25;;;9.48;;
36303;SDS011;22335;49.800;8.596;2023-04-25T01:01:14;10.60;;;9.80;;
36303;SDS011;22335;49.800;8.596;2023-04-25T01:07:58;10.65;;;9.75;;
36303;SDS011;22335;49.800;8.596;2023-04-25T01:14:43;11.05;;;10.07;;
36303;SDS011;22335;49.800;8.596;2023-04-25T01:21:28;10.55;;;9.82;;
36303;SDS011;22335;49.800;8.596;2023-04-25T01:28:12;10.60;;;9.80;;
36303;SDS011;22335;49.800;8.596;2023-04-25T01:34:55;11.90;;;11.00;;
36303;SDS011;22335;49.800;8.596;2023-04-25T01:41:41;9.55;;;8.90;;
36303;SDS011;22335;49.800;8.596;2023-04-25T01:48:25;9.98;;;9.25;;
36303;SDS011;22335;49.800;8.596;2023-04-25T01:55:09;10.40;;;9.60;;
36303;SDS011;22335;49.800;8.596;2023-04-25T02:02:04;11.43;;;10.45;;
36303;SDS011;22335;49.800;8.596;2023-04-25T02:08:51;10.93;;;10.13;;
36303;SDS011;22335;49.800;8.596;2023-04-25T02:15:34;10.98;;;10.07;;
36303;SDS011;22335;49.800;8.596;2023-04-25T02:22:29;11.65;;;10.70;;
36303;SDS011;22335;49.800;8.596;2023-04-25T02:29:15;12.07;;;11.07;;
36303;SDS011;22335;49.800;8.596;2023-04-25T02:35:59;12.00;;;11.10;;
36303;SDS011;22335;49.800;8.596;2023-04-25T02:42:43;12.40;;;11.50;;
36303;SDS011;22335;49.800;8.596;2023-04-25T03:05:46;12.48;;;11.52;;
36303;SDS011;22335;49.800;8.596;2023-04-25T03:12:32;12.68;;;11.60;;
36303;SDS011;22335;49.800;8.596;2023-04-25T03:19:17;13.13;;;12.02;;
36303;SDS011;22335;49.800;8.596;2023-04-25T03:26:03;11.95;;;11.05;;
36303;SDS011;22335;49.800;8.596;2023-04-25T03:32:46;12.88;;;11.70;;
36303;SDS011;22335;49.800;8.596;2023-04-25T03:39:31;12.50;;;11.60;;
36303;SDS011;22335;49.800;8.596;2023-04-25T03:46:16;14.30;;;13.10;;
36303;SDS011;22335;49.800;8.596;2023-04-25T03:53:01;13.02;;;12.02;;
36303;SDS011;22335;49.800;8.596;2023-04-25T04:00:00;12.60;;;11.57;;
36303;SDS011;22335;49.800;8.596;2023-04-25T04:06:54;12.98;;;11.77;;
36303;SDS011;22335;49.800;8.596;2023-04-25T04:13:40;13.82;;;12.57;;
36303;SDS011;22335;49.800;8.596;2023-04-25T04:20:25;11.75;;;10.75;;
36303;SDS011;22335;49.800;8.596;2023-04-25T04:27:10;13.10;;;12.02;;
36303;SDS011;22335;49.800;8.596;2023-04-25T04:34:20;14.00;;;12.80;;
36303;SDS011;22335;49.800;8.596;2023-04-25T04:41:07;13.60;;;12.57;;
36303;SDS011;22335;49.800;8.596;2023-04-25T04:48:15;13.73;;;12.55;;
36303;SDS011;22335;49.800;8.596;2023-04-25T04:55:24;14.30;;;13.07;;
36303;SDS011;22335;49.800;8.596;2023-04-25T05:02:22;13.27;;;12.15;;
36303;SDS011;22335;49.800;8.596;2023-04-25T05:09:16;13.20;;;11.95;;
36303;SDS011;22335;49.800;8.596;2023-04-25T05:16:18;12.98;;;11.93;;
36303;SDS011;22335;49.800;8.596;2023-04-25T05:23:06;12.45;;;11.27;;
36303;SDS011;22335;49.800;8.596;2023-04-25T05:30:15;11.90;;;10.77;;
36303;SDS011;22335;49.800;8.596;2023-04-25T05:37:12;12.85;;;11.57;;
36303;SDS011;22335;49.800;8.596;2023-04-25T05:44:06;14.40;;;11.18;;
36303;SDS011;22335;49.800;8.596;2023-04-25T05:50:58;15.45;;;12.30;;
36303;SDS011;22335;49.800;8.596;2023-04-25T05:58:14;16.05;;;11.60;;
36303;SDS011;22335;49.800;8.596;2023-04-25T06:04:57;16.40;;;12.35;;
36303;SDS011;22335;49.800;8.596;2023-04-25T06:11:43;16.67;;;13.20;;
36303;SDS011;22335;49.800;8.596;2023-04-25T06:18:27;19.10;;;13.30;;
36303;SDS011;22335;49.800;8.596;2023-04-25T06:25:10;15.85;;;13.45;;
36303;SDS011;22335;49.800;8.596;2023-04-25T06:31:55;19.30;;;13.55;;
36303;SDS011;22335;49.800;8.596;2023-04-25T06:38:39;15.45;;;12.20;;
36303;SDS011;22335;49.800;8.596;2023-04-25T06:45:22;17.75;;;12.65;;
36303;SDS011;22335;49.800;8.596;2023-04-25T06:52:09;16.60;;;12.05;;
36303;SDS011;22335;49.800;8.596;2023-04-25T06:58:53;14.93;;;11.38;;
36303;SDS011;22335;49.800;8.596;2023-04-25T07:05:48;14.40;;;11.93;;
36303;SDS011;22335;49.800;8.596;2023-04-25T07:12:33;14.27;;;10.43;;
36303;SDS011;22335;49.800;8.596;2023-04-25T07:19:17;15.38;;;10.85;;
36303;SDS011;22335;49.800;8.596;2023-04-25T07:26:01;13.85;;;11.20;;
36303;SDS011;22335;49.800;8.596;2023-04-25T07:32:46;13.13;;;9.88;;
36303;SDS011;22335;49.800;8.596;2023-04-25T07:39:30;12.48;;;10.80;;
36303;SDS011;22335;49.800;8.596;2023-04-25T07:46:14;12.75;;;9.60;;
36303;SDS011;22335;49.800;8.596;2023-04-25T07:53:00;13.93;;;11.27;;
36303;SDS011;22335;49.800;8.596;2023-04-25T07:59:50;14.23;;;10.75;;
36303;SDS011;22335;49.800;8.596;2023-04-25T08:06:35;12.30;;;10.00;;
36303;SDS011;22335;49.800;8.596;2023-04-25T08:13:24;13.35;;;11.30;;
36303;SDS011;22335;49.800;8.596;2023-04-25T08:20:08;12.40;;;9.82;;
36303;SDS011;22335;49.800;8.596;2023-04-25T08:26:54;15.80;;;10.67;;
36303;SDS011;22335;49.800;8.596;2023-04-25T08:33:41;18.47;;;11.60;;
36303;SDS011;22335;49.800;8.596;2023-04-25T08:40:51;11.32;;;10.23;;
36303;SDS011;22335;49.800;8.596;2023-04-25T08:47:35;10.73;;;9.43;;
36303;SDS011;22335;49.800;8.596;2023-04-25T08:54:22;11.97;;;9.73;;
36303;SDS011;22335;49.800;8.596;2023-04-25T09:01:12;12.30;;;9.32;;
36303;SDS011;22335;49.800;8.596;2023-04-25T09:08:02;11.57;;;8.20;;
36303;SDS011;22335;49.800;8.596;2023-04-25T09:15:02;11.90;;;7.68;;
36303;SDS011;22335;49.800;8.596;2023-04-25T09:22:13;8.90;;;7.95;;
36303;SDS011;22335;49.800;8.596;2023-04-25T09:29:04;12.88;;;8.13;;
36303;SDS011;22335;49.800;8.596;2023-04-25T09:35:54;8.20;;;7.50;;
36303;SDS011;22335;49.800;8.596;2023-04-25T09:43:18;9.18;;;7.47;;
36303;SDS011;22335;49.800;8.596;2023-04-25T09:50:04;7.70;;;7.00;;
36303;SDS011;22335;49.800;8.596;2023-04-25T09:57:03;7.75;;;6.95;;
36303;SDS011;22335;49.800;8.596;2023-04-25T10:03:54;8.25;;;7.55;;
36303;SDS011;22335;49.800;8.596;2023-04-25T10:11:00;9.55;;;7.10;;
36303;SDS011;22335;49.800;8.596;2023-04-25T10:17:46;7.57;;;6.97;;
36303;SDS011;22335;49.800;8.596;2023-04-25T10:24:31;7.28;;;6.72;;
36303;SDS011;22335;49.800;8.596;2023-04-25T10:31:15;8.10;;;7.22;;
36303;SDS011;22335;49.800;8.596;2023-04-25T10:38:02;7.82;;;7.13;;
36303;SDS011;22335;49.800;8.596;2023-04-25T10:45:00;8.77;;;8.07;;
36303;SDS011;22335;49.800;8.596;2023-04-25T10:51:45;9.57;;;8.50;;
36303;SDS011;22335;49.800;8.596;2023-04-25T10:58:36;9.15;;;8.35;;
36303;SDS011;22335;49.800;8.596;2023-04-25T11:05:28;9.98;;;8.98;;
36303;SDS011;22335;49.800;8.596;2023-04-25T11:12:16;11.27;;;9.05;;
36303;SDS011;22335;49.800;8.596;2023-04-25T11:19:01;10.00;;;8.68;;
36303;SDS011;22335;49.800;8.596;2023-04-25T11:25:45;10.13;;;9.00;;
36303;SDS011;22335;49.800;8.596;2023-04-25T11:32:28;9.73;;;8.82;;
36303;SDS011;22335;49.800;8.596;2023-04-25T11:39:13;9.32;;;8.55;;
36303;SDS011;22335;49.800;8.596;2023-04-25T11:45:57;11.48;;;9.35;;
36303;SDS011;22335;49.800;8.596;2023-04-25T11:52:41;9.85;;;8.85;;
36303;SDS011;22335;49.800;8.596;2023-04-25T11:59:28;10.27;;;9.37;;
36303;SDS011;22335;49.800;8.596;2023-04-25T12:06:11;10.77;;;9.38;;
36303;SDS011;22335;49.800;8.596;2023-04-25T12:13:00;10.43;;;9.32;;
36303;SDS011;22335;49.800;8.596;2023-04-25T12:20:00;10.15;;;9.13;;
36303;SDS011;22335;49.800;8.596;2023-04-25T12:26:51;12.65;;;8.73;;
36303;SDS011;22335;49.800;8.596;2023-04-25T12:33:38;9.18;;;8.27;;
36303;SDS011;22335;49.800;8.596;2023-04-25T12:40:24;10.57;;;8.75;;
36303;SDS011;22335;49.800;8.596;2023-04-25T12:47:08;9.10;;;8.20;;
36303;SDS011;22335;49.800;8.596;2023-04-25T12:53:52;10.20;;;8.23;;
36303;SDS011;22335;49.800;8.596;2023-04-25T13:00:36;10.90;;;8.05;;
36303;SDS011;22335;49.800;8.596;2023-04-25T13:07:20;9.82;;;7.70;;
36303;SDS011;22335;49.800;8.596;2023-04-25T13:14:04;7.90;;;7.05;;
36303;SDS011;22335;49.800;8.596;2023-04-25T13:20:49;10.60;;;7.57;;
36303;SDS011;22335;49.800;8.596;2023-04-25T13:27:32;8.20;;;7.40;;
36303;SDS011;22335;49.800;8.596;2023-04-25T13:34:18;8.57;;;7.40;;
36303;SDS011;22335;49.800;8.596;2023-04-25T13:41:03;7.93;;;7.13;;
36303;SDS011;22335;49.800;8.596;2023-04-25T13:47:48;10.90;;;7.70;;
36303;SDS011;22335;49.800;8.596;2023-04-25T13:54:32;10.60;;;7.22;;
36303;SDS011;22335;49.800;8.596;2023-04-25T14:01:17;9.85;;;7.10;;
36303;SDS011;22335;49.800;8.596;2023-04-25T14:08:02;11.07;;;7.70;;
36303;SDS011;22335;49.800;8.596;2023-04-25T14:14:48;10.80;;;7.40;;
36303;SDS011;22335;49.800;8.596;2023-04-25T14:21:33;11.60;;;8.52;;
36303;SDS011;22335;49.800;8.596;2023-04-25T14:28:16;10.35;;;6.82;;
36303;SDS011;22335;49.800;8.596;2023-04-25T14:35:01;6.90;;;6.28;;
36303;SDS011;22335;49.800;8.596;2023-04-25T14:41:46;9.77;;;6.20;;
36303;SDS011;22335;49.800;8.596;2023-04-25T14:48:29;8.23;;;7.30;;
36303;SDS011;22335;49.800;8.596;2023-04-25T14:55:13;7.72;;;6.45;;
36303;SDS011;22335;49.800;8.596;2023-04-25T15:01:57;9.65;;;6.13;;
36303;SDS011;22335;49.800;8.596;2023-04-25T15:08:41;7.72;;;6.70;;
36303;SDS011;22335;49.800;8.596;2023-04-25T15:15:24;8.43;;;7.20;;
36303;SDS011;22335;49.800;8.596;2023-04-25T15:22:09;9.77;;;8.77;;
36303;SDS011;22335;49.800;8.596;2023-04-25T15:28:52;9.77;;;7.32;;
36303;SDS011;22335;49.800;8.596;2023-04-25T15:35:36;7.20;;;6.50;;
36303;SDS011;22335;49.800;8.596;2023-04-25T15:42:21;9.68;;;7.70;;
36303;SDS011;22335;49.800;8.596;2023-04-25T15:49:05;10.60;;;7.53;;
36303;SDS011;22335;49.800;8.596;2023-04-25T15:55:48;7.68;;;6.90;;
36303;SDS011;22335;49.800;8.596;2023-04-25T16:02:33;8.45;;;7.50;;
36303;SDS011;22335;49.800;8.596;2023-04-25T16:09:16;7.47;;;6.78;;
36303;SDS011;22335;49.800;8.596;2023-04-25T16:16:00;9.05;;;7.07;;
36303;SDS011;22335;49.800;8.596;2023-04-25T16:22:45;10.80;;;6.78;;
36303;SDS011;22335;49.800;8.596;2023-04-25T16:29:28;7.75;;;7.10;;
36303;SDS011;22335;49.800;8.596;2023-04-25T16:36:12;10.05;;;6.40;;
36303;SDS011;22335;49.800;8.596;2023-04-25T16:42:58;9.38;;;6.43;;
36303;SDS011;22335;49.800;8.596;2023-04-25T16:49:42;7.60;;;6.53;;
36303;SDS011;22335;49.800;8.596;2023-04-25T16:56:26;8.35;;;7.20;;
36303;SDS011;22335;49.800;8.596;2023-04-25T17:03:10;7.10;;;6.40;;
36303;SDS011;22335;49.800;8.596;2023-04-25T17:09:54;7.70;;;6.25;;
36303;SDS011;22335;49.800;8.596;2023-04-25T17:16:38;7.18;;;6.57;;
36303;SDS011;22335;49.800;8.596;2023-04-25T17:23:23;8.20;;;6.97;;
36303;SDS011;22335;49.800;8.596;2023-04-25T17:30:06;10.07;;;6.28;;
36303;SDS011;22335;49.800;8.596;2023-04-25T17:36:50;10.48;;;6.57;;
36303;SDS011;22335;49.800;8.596;2023-04-25T17:43:36;8.50;;;6.75;;
36303;SDS011;22335;49.800;8.596;2023-04-25T17:50:19;6.85;;;6.15;;
36303;SDS011;22335;49.800;8.596;2023-04-25T17:57:03;8.88;;;6.90;;
36303;SDS011;22335;49.800;8.596;2023-04-25T18:03:48;7.82;;;6.63;;
36303;SDS011;22335;49.800;8.596;2023-04-25T18:10:33;9.55;;;6.57;;
36303;SDS011;22335;49.800;8.596;2023-04-25T18:17:17;8.15;;;6.80;;
36303;SDS011;22335;49.800;8.596;2023-04-25T18:24:05;8.15;;;6.75;;
36303;SDS011;22335;49.800;8.596;2023-04-25T18:30:49;7.93;;;6.70;;
36303;SDS011;22335;49.800;8.596;2023-04-25T18:37:33;6.80;;;6.10;;
36303;SDS011;22335;49.800;8.596;2023-04-25T18:44:18;8.70;;;6.78;;
36303;SDS011;22335;49.800;8.596;2023-04-25T18:51:02;7.03;;;6.20;;
36303;SDS011;22335;49.800;8.596;2023-04-25T18:57:46;10.70;;;7.50;;
36303;SDS011;22335;49.800;8.596;2023-04-25T19:04:30;8.93;;;6.88;;
36303;SDS011;22335;49.800;8.596;2023-04-25T19:11:14;9.90;;;6.80;;
36303;SDS011;22335;49.800;8.596;2023-04-25T19:18:00;8.20;;;7.13;;
36303;SDS011;22335;49.800;8.596;2023-04-25T19:24:46;11.07;;;7.68;;
36303;SDS011;22335;49.800;8.596;2023-04-25T19:31:33;9.73;;;6.63;;
36303;SDS011;22335;49.800;8.596;2023-04-25T19:38:18;8.85;;;6.90;;
36303;SDS011;22335;49.800;8.596;2023-04-25T19:45:03;10.73;;;7.15;;
36303;SDS011;22335;49.800;8.596;2023-04-25T19:51:47;10.48;;;6.78;;
36303;SDS011;22335;49.800;8.596;2023-04-25T19:58:31;8.70;;;7.00;;
36303;SDS011;22335;49.800;8.596;2023-04-25T20:05:16;9.63;;;6.78;;
36303;SDS011;22335;49.800;8.596;2023-04-25T20:11:59;9.18;;;6.53;;
36303;SDS011;22335;49.800;8.596;2023-04-25T20:18:44;9.77;;;6.78;;
36303;SDS011;22335;49.800;8.596;2023-04-25T20:25:30;10.75;;;7.28;;
36303;SDS011;22335;49.800;8.596;2023-04-25T20:32:13;9.23;;;7.40;;
36303;SDS011;22335;49.800;8.596;2023-04-25T20:38:57;8.65;;;6.82;;
36303;SDS011;22335;49.800;8.596;2023-04-25T20:45:41;7.82;;;7.10;;
36303;SDS011;22335;49.800;8.596;2023-04-25T20:52:25;8.13;;;6.80;;
36303;SDS011;22335;49.800;8.596;2023-04-25T20:59:09;9.23;;;7.00;;
36303;SDS011;22335;49.800;8.596;2023-04-25T21:05:54;7.72;;;6.88;;
36303;SDS011;22335;49.800;8.596;2023-04-25T21:12:38;9.38;;;6.97;;
36303;SDS011;22335;49.800;8.596;2023-04-25T21:19:21;9.57;;;8.57;;
36303;SDS011;22335;49.800;8.596;2023-04-25T21:26:06;10.70;;;8.60;;
36303;SDS011;22335;49.800;8.596;2023-04-25T21:32:50;11.93;;;8.23;;
36303;SDS011;22335;49.800;8.596;2023-04-25T21:39:34;9.50;;;8.48;;
36303;SDS011;22335;49.800;8.596;2023-04-25T21:46:19;10.30;;;8.00;;
36303;SDS011;22335;49.800;8.596;2023-04-25T21:53:05;10.32;;;8.80;;
36303;SDS011;22335;49.800;8.596;2023-04-25T21:59:51;10.80;;;8.55;;
36303;SDS011;22335;49.800;8.596;2023-04-25T22:06:36;9.75;;;8.63;;
36303;SDS011;22335;49.800;8.596;2023-04-25T22:13:19;9.70;;;8.30;;
36303;SDS011;22335;49.800;8.596;2023-04-25T22:20:03;9.57;;;8.13;;
36303;SDS011;22335;49.800;8.596;2023-04-25T22:26:52;12.40;;;8.85;;
36303;SDS011;22335;49.800;8.596;2023-04-25T22:33:35;8.73;;;7.80;;
36303;SDS011;22335;49.800;8.596;2023-04-25T22:40:19;13.15;;;9.15;;
36303;SDS011;22335;49.800;8.596;2023-04-25T22:47:03;15.05;;;11.13;;
36303;SDS011;22335;49.800;8.596;2023-04-25T22:53:47;12.88;;;10.13;;
36303;SDS011;22335;49.800;8.596;2023-04-25T23:00:32;10.07;;;9.18;;
36303;SDS011;22335;49.800;8.596;2023-04-25T23:07:16;9.40;;;8.35;;
36303;SDS011;22335;49.800;8.596;2023-04-25T23:14:00;11.55;;;8.93;;
36303;SDS011;22335;49.800;8.596;2023-04-25T23:20:43;8.80;;;7.93;;
36303;SDS011;22335;49.800;8.596;2023-04-25T23:27:29;9.20;;;8.02;;
36303;SDS011;22335;49.800;8.596;2023-04-25T23:34:12;9.13;;;7.78;;
36303;SDS011;22335;49.800;8.596;2023-04-25T23:40:56;9.70;;;8.07;;
36303;SDS011;22335;49.800;8.596;2023-04-25T23:47:40;8.68;;;7.88;;
36303;SDS011;22335;49.800;8.596;2023-04-25T23:54:24;7.80;;;7.10;;
